Aérodrome :
LOGIN :

S'inscrire | Disclaimer

   EN    FR    IT 

 










Légende :    VFR   VFR Marginal   IFR   IFR Intensif   IFR Très Intensif
Visi : 
Plafond : 
>= 8 km
>= 3000ft
5 à 8 km
1000 à 3000 ft
1500m à 5 km
500 à 1000 ft
800 à 1500m
200 à 500 ft
< 800m
< 200 ft
Symboles :   Orages  Brouillard  Fortes neiges  Fortes précipitations  Vent > 20 kt
SIGMETs :   Divers  Orages  Givrage  Turbulence  Onde Orograph.  Cendres Volcan.







- Altitude de l'aérodrome : 1791 ft
- Code IATA : AOT


LIMW - Aosta

DERNIER METAR :
  • 121120Z AUTO 00000KT 9999 NCD M03/M07 Q1019

METARs EXPIRÉS :
  • 121050Z AUTO 00000KT 9999 NCD M04/M06 Q1020
  • 121020Z AUTO 26002KT 9999 NCD M03/M06 Q1020
  • 120950Z AUTO 00000KT 9999 NCD M04/M07 Q1020
  • 120920Z AUTO 00000KT 9999 NCD M04/M06 Q1021
  • 120850Z AUTO 00000KT 9999 NCD M05/M06 Q1020

TAF TAF LIMW
Valide du 12 à 12h jusqu'au 12 à 21h UTC


121100Z 1212/1221 VRB05KT CAVOK
Pas de NOTAMs connus pour ce terrain.



MET'MAP, la Météo Aéronautique d'un coup d'oeil ! - Copyright ORBIFLY Décembre 2007 - Disclaimer

ORBIFLY MET'MAP TEAM :

Programmation & Développement : Alexandra Zaïnal
Conception & Développement : Baudouin d'Aumeries
Co-Programmation & Développement : Marc-Olivier Méhu
Soutien technique & logistique : Manuel Goepfert

Contact : metmap@orbifly.com




SOURCES & CREDITS :

   NOAA